Time;durP1;ratioP1;P1;durP2;ratioP2;P2;SDS_P1;SDS_P2;PMS_P1;PMS_P2;Temp;Humidity;BMP_temperature;BMP_pressure;BME280_temperature;BME280_humidity;BME280_pressure;Samples;Min_cycle;Max_cycle;Signal;HPM_P1;HPM_P2
2023/10/09 00:03:06;;;;;;;0.68;0.68;;;1.60;99.90;;;;;;5154253;27;20607;-71
2023/10/09 00:08:10;;;;;;;0.70;0.70;;;1.50;99.90;;;;;;5152875;27;20189;-71
2023/10/09 00:10:48;;;;;;;0.80;0.80;;;1.50;99.90;;;;;;5114530;27;20203;-71
2023/10/09 00:13:14;;;;;;;0.70;0.70;;;1.50;99.90;;;;;;5114677;27;20206;-71
2023/10/09 00:15:41;;;;;;;0.60;0.60;;;1.50;99.90;;;;;;5133014;27;20191;-71
2023/10/09 00:18:11;;;;;;;0.65;0.65;;;1.30;99.90;;;;;;5133026;27;20290;-71
2023/10/09 00:20:42;;;;;;;0.60;0.60;;;1.30;99.90;;;;;;5132876;27;20684;-71
2023/10/09 00:23:15;;;;;;;0.70;0.70;;;1.20;99.90;;;;;;5133082;27;20190;-71
2023/10/09 00:26:05;;;;;;;0.70;0.70;;;1.20;99.90;;;;;;5132820;27;20654;-71
2023/10/09 00:28:31;;;;;;;0.63;0.63;;;1.10;99.90;;;;;;5132741;27;20263;-72
2023/10/09 00:30:57;;;;;;;0.63;0.63;;;1.00;99.90;;;;;;5113972;27;20228;-71
2023/10/09 00:33:22;;;;;;;0.70;0.70;;;1.00;99.90;;;;;;5132362;27;20525;-71
2023/10/09 00:35:54;;;;;;;3.80;2.65;;;0.90;99.90;;;;;;5132624;27;20191;-71
2023/10/09 00:40:47;;;;;;;0.55;0.55;;;0.80;99.90;;;;;;5133050;27;20203;-71
2023/10/09 00:43:19;;;;;;;0.85;0.85;;;0.80;99.90;;;;;;5132754;27;20187;-71
2023/10/09 00:45:46;;;;;;;0.88;0.88;;;0.80;99.90;;;;;;5113983;27;20247;-71
2023/10/09 00:48:26;;;;;;;0.60;0.60;;;0.70;99.90;;;;;;5132631;27;20729;-71
2023/10/09 00:50:55;;;;;;;0.70;0.70;;;0.70;99.90;;;;;;5132739;27;20187;-71
2023/10/09 00:53:31;;;;;;;0.68;0.68;;;0.70;99.90;;;;;;5135176;27;20229;-71
2023/10/09 00:58:55;;;;;;;0.75;0.75;;;0.50;99.90;;;;;;5153515;27;20217;-72
2023/10/09 01:01:27;;;;;;;0.60;0.60;;;0.50;99.90;;;;;;5152910;27;20285;-72
2023/10/09 01:03:53;;;;;;;0.73;0.73;;;0.40;99.90;;;;;;5152819;27;20190;-72
2023/10/09 01:06:21;;;;;;;0.90;0.90;;;0.40;99.90;;;;;;5135429;27;20205;-72
2023/10/09 01:11:32;;;;;;;0.80;0.80;;;0.40;99.90;;;;;;5132129;27;20680;-72
2023/10/09 01:14:11;;;;;;;0.70;0.70;;;0.50;99.90;;;;;;5132113;27;20252;-72
2023/10/09 01:16:42;;;;;;;0.70;0.70;;;0.40;99.90;;;;;;5112445;27;20201;-72
2023/10/09 01:19:20;;;;;;;0.80;0.80;;;0.40;99.90;;;;;;5113808;27;20187;-72
2023/10/09 01:21:46;;;;;;;0.77;0.77;;;0.40;99.90;;;;;;5113038;27;20198;-72
2023/10/09 01:24:12;;;;;;;0.70;0.70;;;0.40;99.90;;;;;;5113138;27;20206;-72
2023/10/09 01:26:39;;;;;;;0.50;0.50;;;0.40;99.90;;;;;;5131772;27;20195;-72
2023/10/09 01:29:14;;;;;;;0.70;0.70;;;0.40;99.90;;;;;;5118966;27;20681;-72
2023/10/09 01:32:04;;;;;;;0.70;0.70;;;0.40;99.90;;;;;;5111050;28;20203;-71
2023/10/09 01:34:45;;;;;;;0.60;0.60;;;0.40;99.90;;;;;;5111756;28;20719;-72
2023/10/09 01:37:18;;;;;;;0.80;0.80;;;0.40;99.90;;;;;;5111596;28;20206;-72
2023/10/09 01:39:48;;;;;;;0.57;0.57;;;0.40;99.90;;;;;;5111274;28;20584;-69
2023/10/09 01:42:44;;;;;;;0.75;0.75;;;0.40;99.90;;;;;;5111102;28;20188;-68
2023/10/09 01:45:11;;;;;;;0.80;0.80;;;0.30;99.90;;;;;;5111100;28;20283;-70
2023/10/09 01:47:40;;;;;;;0.90;0.90;;;0.30;99.90;;;;;;5110933;28;20225;-69
2023/10/09 01:50:20;;;;;;;0.60;0.60;;;0.20;99.90;;;;;;5111117;28;20207;-68
2023/10/09 01:52:45;;;;;;;0.70;0.70;;;0.10;99.90;;;;;;5110807;28;20195;-71
2023/10/09 01:55:34;;;;;;;0.70;0.70;;;0.10;99.90;;;;;;5148191;27;20294;-70
2023/10/09 01:58:05;;;;;;;0.70;0.70;;;0.10;99.90;;;;;;5152126;27;20234;-68
2023/10/09 02:00:42;;;;;;;0.60;0.60;;;0.10;99.90;;;;;;5151800;27;20818;-68
2023/10/09 02:03:12;;;;;;;0.70;0.70;;;0.00;99.90;;;;;;5110796;28;20191;-69
2023/10/09 02:05:39;;;;;;;0.60;0.60;;;0.00;99.90;;;;;;5109667;28;20188;-69
2023/10/09 02:08:05;;;;;;;0.80;0.80;;;-0.10;99.90;;;;;;5110678;28;20176;-69
2023/10/09 02:10:32;;;;;;;0.60;0.60;;;-0.10;99.90;;;;;;5110241;28;20187;-69
2023/10/09 02:13:13;;;;;;;0.65;0.65;;;-0.10;99.90;;;;;;5118989;27;20191;-70
2023/10/09 02:18:26;;;;;;;0.65;0.65;;;-0.10;99.90;;;;;;5130663;27;20776;-70
2023/10/09 02:26:25;;;;;;;0.73;0.73;;;-0.10;99.90;;;;;;5110738;27;20663;-71
2023/10/09 02:31:40;;;;;;;0.80;0.80;;;-0.10;99.90;;;;;;5110070;28;20651;-71
2023/10/09 02:34:10;;;;;;;0.70;0.70;;;-0.10;99.90;;;;;;5110182;28;20593;-71
2023/10/09 02:36:42;;;;;;;0.70;0.70;;;0.00;99.90;;;;;;5109834;28;20180;-71
2023/10/09 02:39:23;;;;;;;0.65;0.65;;;0.00;99.90;;;;;;5109993;28;20187;-71
2023/10/09 02:42:01;;;;;;;0.80;0.80;;;-0.10;99.90;;;;;;5110046;28;20701;-70
2023/10/09 02:44:34;;;;;;;0.73;0.73;;;-0.10;99.90;;;;;;5109902;28;20690;-70
2023/10/09 02:47:05;;;;;;;0.60;0.60;;;-0.20;99.90;;;;;;5109744;28;20200;-70
2023/10/09 02:49:30;;;;;;;0.70;0.70;;;-0.20;99.90;;;;;;5109712;28;20576;-69
2023/10/09 02:51:56;;;;;;;0.63;0.63;;;-0.20;99.90;;;;;;5110106;28;20200;-68
2023/10/09 02:56:56;;;;;;;0.63;0.63;;;-0.30;99.90;;;;;;5150794;27;20186;-69
2023/10/09 02:59:22;;;;;;;0.70;0.70;;;-0.30;99.90;;;;;;5129974;27;20186;-68
2023/10/09 03:01:49;;;;;;;0.70;0.70;;;-0.30;99.90;;;;;;5120775;27;20244;-68
2023/10/09 03:04:15;;;;;;;0.57;0.57;;;-0.40;99.90;;;;;;5129708;27;20199;-70
2023/10/09 03:06:50;;;;;;;0.70;0.70;;;-0.40;99.90;;;;;;5129787;27;20213;-69
2023/10/09 03:09:26;;;;;;;0.80;0.80;;;-0.50;99.90;;;;;;5130005;27;20247;-69
2023/10/09 03:12:02;;;;;;;0.70;0.70;;;-0.50;99.90;;;;;;5129958;27;20213;-69
2023/10/09 03:14:31;;;;;;;0.60;0.60;;;-0.50;99.90;;;;;;5129738;27;20209;-69
2023/10/09 03:16:57;;;;;;;0.60;0.60;;;-0.60;99.90;;;;;;5128998;27;20217;-69
2023/10/09 03:19:28;;;;;;;0.60;0.60;;;-0.60;99.90;;;;;;5129763;27;20190;-70
2023/10/09 03:21:57;;;;;;;0.65;0.65;;;-0.60;99.90;;;;;;5129753;27;20191;-70
2023/10/09 03:24:30;;;;;;;0.60;0.60;;;-0.60;99.90;;;;;;5129813;28;20258;-70
2023/10/09 03:26:56;;;;;;;0.52;0.52;;;-0.70;99.90;;;;;;5129828;28;20198;-70
2023/10/09 03:29:24;;;;;;;0.70;0.70;;;-0.70;99.90;;;;;;5129845;28;20213;-70
2023/10/09 03:31:53;;;;;;;0.80;0.80;;;-0.80;99.90;;;;;;5129851;28;20215;-70
2023/10/09 03:34:19;;;;;;;0.70;0.70;;;-0.70;99.90;;;;;;5129598;28;20206;-70
2023/10/09 03:37:03;;;;;;;0.68;0.68;;;-0.80;99.90;;;;;;5129713;28;20198;-70
2023/10/09 03:39:41;;;;;;;0.60;0.60;;;-0.80;99.90;;;;;;5129714;28;20218;-71
2023/10/09 03:42:11;;;;;;;0.70;0.70;;;-0.80;99.90;;;;;;5129731;28;20194;-70
2023/10/09 03:44:44;;;;;;;0.80;0.80;;;-0.80;99.90;;;;;;5129348;28;20215;-70
2023/10/09 03:47:10;;;;;;;0.70;0.70;;;-0.80;99.90;;;;;;5129498;28;20197;-70
2023/10/09 03:49:39;;;;;;;0.80;0.80;;;-0.80;99.90;;;;;;5129311;28;20377;-70
2023/10/09 03:52:06;;;;;;;0.60;0.60;;;-0.90;99.90;;;;;;5129504;28;20194;-70
2023/10/09 03:54:34;;;;;;;0.77;0.77;;;-0.90;99.90;;;;;;5129417;27;20256;-70
2023/10/09 03:57:01;;;;;;;0.80;0.80;;;-0.90;99.90;;;;;;5129512;28;20179;-70
2023/10/09 03:59:31;;;;;;;0.70;0.70;;;-0.90;99.90;;;;;;5129500;28;20190;-70
2023/10/09 04:01:58;;;;;;;0.77;0.77;;;-1.00;99.90;;;;;;5129259;28;20187;-70
2023/10/09 04:04:24;;;;;;;0.80;0.80;;;-1.00;99.90;;;;;;5129181;28;20236;-70
2023/10/09 04:06:53;;;;;;;0.70;0.70;;;-1.00;99.90;;;;;;5110660;28;20220;-70
2023/10/09 04:11:56;;;;;;;0.70;0.70;;;-1.00;99.90;;;;;;5129524;28;20218;-69
2023/10/09 04:14:33;;;;;;;0.80;0.80;;;-1.10;99.90;;;;;;5128986;28;20202;-70
2023/10/09 04:17:44;;;;;;;0.70;0.70;;;-1.10;99.90;;;;;;5110507;28;20203;-70
2023/10/09 04:22:51;;;;;;;0.60;0.60;;;-1.10;99.90;;;;;;5129583;28;20575;-70
2023/10/09 04:25:28;;;;;;;0.70;0.70;;;-1.10;99.90;;;;;;5110909;28;20228;-69
2023/10/09 04:30:42;;;;;;;0.70;0.70;;;-1.20;99.90;;;;;;5133157;27;20241;-71
2023/10/09 04:33:27;;;;;;;0.68;0.68;;;-1.20;99.90;;;;;;5132836;27;20255;-71
2023/10/09 04:36:21;;;;;;;0.85;0.85;;;-1.10;99.90;;;;;;5127075;27;20211;-71
2023/10/09 04:41:33;;;;;;;0.70;0.70;;;-1.10;99.90;;;;;;5112493;28;20196;-71
2023/10/09 04:46:44;;;;;;;0.73;0.73;;;-1.10;99.90;;;;;;5111995;28;20192;-71
2023/10/09 04:49:28;;;;;;;0.70;0.70;;;-1.10;99.90;;;;;;5093813;28;20577;-71
2023/10/09 04:52:17;;;;;;;0.80;0.80;;;-1.10;99.90;;;;;;5093814;28;20206;-71
2023/10/09 04:55:12;;;;;;;0.70;0.70;;;-1.20;99.90;;;;;;5141368;27;20225;-71
2023/10/09 04:57:38;;;;;;;0.70;0.70;;;-1.20;99.90;;;;;;5152229;27;20350;-71
2023/10/09 05:02:57;;;;;;;0.70;0.70;;;-1.20;99.90;;;;;;5116771;27;20540;-71
2023/10/09 05:18:44;;;;;;;0.80;0.80;;;-1.20;99.90;;;;;;5131661;27;20186;-71
2023/10/09 05:24:09;;;;;;;0.63;0.63;;;-1.30;99.90;;;;;;5132037;27;20273;-71
2023/10/09 05:26:50;;;;;;;0.70;0.70;;;-1.30;99.90;;;;;;5131596;27;20783;-72
2023/10/09 05:32:03;;;;;;;0.80;0.80;;;-1.30;99.90;;;;;;5132097;27;20187;-71
2023/10/09 05:37:24;;;;;;;0.80;0.80;;;-1.40;99.90;;;;;;5131564;27;20289;-71
2023/10/09 05:47:53;;;;;;;0.80;0.80;;;-1.40;99.90;;;;;;5131828;27;20243;-71
2023/10/09 06:11:49;;;;;;;0.60;0.60;;;-1.00;99.90;;;;;;5110674;28;20286;-71
2023/10/09 06:24:42;;;;;;;0.80;0.80;;;-0.80;99.90;;;;;;5110568;28;20691;-72
2023/10/09 06:27:12;;;;;;;0.85;0.85;;;-0.70;99.90;;;;;;5110462;28;20188;-71
2023/10/09 06:34:56;;;;;;;0.80;0.80;;;-0.50;99.90;;;;;;5110410;28;20199;-71
2023/10/09 06:45:21;;;;;;;0.80;0.80;;;-0.10;99.90;;;;;;5046384;28;20221;-71
2023/10/09 06:47:55;;;;;;;0.88;0.88;;;0.00;99.90;;;;;;5030057;28;20220;-71
2023/10/09 06:53:18;;;;;;;0.80;0.80;;;0.10;99.90;;;;;;5046695;28;20677;-71
2023/10/09 06:55:50;;;;;;;0.82;0.82;;;0.20;99.90;;;;;;5046283;28;20304;-71
2023/10/09 06:58:27;;;;;;;2.75;1.55;;;0.20;99.90;;;;;;5046481;28;20221;-71
2023/10/09 07:03:29;;;;;;;0.70;0.70;;;0.40;99.90;;;;;;5046397;28;20208;-71
2023/10/09 07:06:24;;;;;;;0.60;0.60;;;0.50;99.90;;;;;;5053032;28;20775;-72
2023/10/09 07:17:15;;;;;;;0.98;0.98;;;1.20;99.90;;;;;;5085142;28;20199;-72
2023/10/09 07:24:56;;;;;;;0.70;0.70;;;1.60;99.90;;;;;;5088889;28;20239;-72
2023/10/09 07:38:08;;;;;;;0.60;0.60;;;2.10;99.90;;;;;;5108961;28;20609;-72
2023/10/09 07:43:38;;;;;;;0.60;0.60;;;2.20;99.90;;;;;;5109040;28;20252;-72
2023/10/09 07:48:55;;;;;;;0.60;0.60;;;2.60;99.90;;;;;;5109476;28;20202;-73
2023/10/09 07:51:23;;;;;;;0.60;0.60;;;2.90;99.90;;;;;;5109205;28;20195;-72
2023/10/09 07:53:56;;;;;;;0.70;0.70;;;3.20;99.90;;;;;;5109039;28;20219;-73
2023/10/09 07:56:30;;;;;;;0.75;0.75;;;3.40;99.90;;;;;;5108823;28;20195;-73
2023/10/09 07:59:00;;;;;;;0.70;0.70;;;3.60;99.90;;;;;;5109001;28;20187;-73
2023/10/09 08:03:57;;;;;;;0.70;0.70;;;3.90;99.90;;;;;;5131804;27;20226;-69
2023/10/09 08:06:38;;;;;;;0.60;0.60;;;4.20;99.90;;;;;;5133289;27;20186;-70
2023/10/09 08:17:13;;;;;;;0.70;0.70;;;5.00;99.90;;;;;;5133475;27;20219;-71
2023/10/09 08:20:11;;;;;;;0.50;0.50;;;5.20;99.90;;;;;;5133007;27;20201;-71
2023/10/09 08:22:43;;;;;;;0.70;0.70;;;5.40;99.90;;;;;;5112550;28;20205;-70
2023/10/09 08:25:32;;;;;;;0.60;0.60;;;5.50;99.90;;;;;;5112571;28;20207;-70
2023/10/09 08:30:50;;;;;;;0.70;0.70;;;5.80;99.90;;;;;;5112691;28;20187;-70
2023/10/09 08:36:07;;;;;;;0.50;0.50;;;5.60;99.90;;;;;;5112378;28;20558;-70
2023/10/09 08:38:34;;;;;;;0.60;0.60;;;5.50;99.90;;;;;;5112133;28;20232;-70
2023/10/09 08:41:19;;;;;;;0.60;0.60;;;5.30;99.90;;;;;;5112458;28;20187;-70
2023/10/09 08:43:52;;;;;;;0.60;0.60;;;5.40;99.90;;;;;;5112004;28;20607;-71
2023/10/09 08:46:26;;;;;;;0.60;0.60;;;5.70;99.90;;;;;;5112125;28;20556;-70
2023/10/09 08:48:58;;;;;;;0.63;0.63;;;6.00;99.90;;;;;;5112048;28;20191;-70
2023/10/09 08:51:28;;;;;;;0.60;0.60;;;6.40;99.90;;;;;;5112093;28;20242;-71
2023/10/09 08:53:54;;;;;;;4.13;2.65;;;6.70;99.90;;;;;;5112172;28;20512;-71
2023/10/09 08:56:24;;;;;;;0.70;0.70;;;7.10;99.90;;;;;;5111904;28;20209;-71
2023/10/09 08:58:56;;;;;;;0.68;0.68;;;7.40;99.90;;;;;;5122067;27;20198;-70
2023/10/09 09:01:24;;;;;;;0.70;0.70;;;7.70;99.90;;;;;;5132260;27;20207;-71
2023/10/09 09:03:51;;;;;;;0.60;0.60;;;8.00;99.90;;;;;;5131980;27;20187;-72
2023/10/09 09:06:19;;;;;;;0.60;0.60;;;8.20;99.90;;;;;;5132433;27;20700;-71
2023/10/09 09:08:46;;;;;;;0.70;0.70;;;8.40;99.90;;;;;;5132113;27;20195;-72
2023/10/09 09:11:18;;;;;;;0.80;0.80;;;8.50;99.90;;;;;;5132315;27;20258;-75
2023/10/09 09:14:04;;;;;;;0.70;0.70;;;8.60;99.90;;;;;;5132200;27;20251;-73
2023/10/09 09:16:38;;;;;;;0.70;0.70;;;8.90;99.90;;;;;;5107713;28;20234;-74
2023/10/09 09:22:11;;;;;;;0.60;0.60;;;9.30;99.90;;;;;;5111540;28;20199;-73
2023/10/09 09:24:37;;;;;;;0.60;0.60;;;9.60;99.90;;;;;;5111195;28;20570;-74
2023/10/09 09:27:12;;;;;;;0.60;0.60;;;9.80;99.90;;;;;;5111621;28;20192;-75
2023/10/09 09:29:40;;;;;;;2.53;2.15;;;9.90;99.90;;;;;;5092886;28;20198;-74
2023/10/09 09:32:23;;;;;;;0.70;0.70;;;10.20;99.90;;;;;;5111451;28;20198;-74
2023/10/09 09:35:04;;;;;;;0.73;0.73;;;10.50;99.90;;;;;;5111267;28;20811;-74
2023/10/09 09:37:38;;;;;;;0.50;0.50;;;10.50;99.90;;;;;;5095669;27;20253;-74
2023/10/09 09:42:50;;;;;;;0.60;0.60;;;10.90;99.90;;;;;;5131562;27;20205;-74
2023/10/09 09:45:16;;;;;;;0.63;0.63;;;11.00;99.90;;;;;;5112924;27;20217;-73
2023/10/09 09:47:51;;;;;;;0.60;0.60;;;11.30;99.90;;;;;;5112691;27;20217;-73
2023/10/09 09:50:29;;;;;;;0.57;0.57;;;11.50;99.90;;;;;;5131454;27;20186;-70
2023/10/09 09:52:55;;;;;;;0.70;0.70;;;11.60;99.90;;;;;;5112819;27;20206;-72
2023/10/09 09:55:30;;;;;;;0.60;0.60;;;11.80;99.90;;;;;;5130846;27;20222;-71
2023/10/09 09:57:57;;;;;;;0.50;0.50;;;12.20;99.90;;;;;;5131449;27;20198;-71
2023/10/09 10:03:12;;;;;;;1.00;1.00;;;11.90;99.90;;;;;;5131618;27;20206;-72
2023/10/09 10:05:42;;;;;;;0.50;0.50;;;11.50;99.90;;;;;;5131268;27;20255;-71
2023/10/09 10:08:12;;;;;;;0.60;0.60;;;11.30;99.90;;;;;;5130951;27;20206;-71
2023/10/09 10:10:47;;;;;;;0.50;0.50;;;11.10;99.90;;;;;;5130845;27;20864;-71
2023/10/09 10:13:23;;;;;;;0.50;0.50;;;11.10;99.90;;;;;;5126549;27;20676;-71
2023/10/09 10:18:59;;;;;;;1.02;1.02;;;11.70;99.90;;;;;;5130957;27;20628;-70
2023/10/09 10:24:09;;;;;;;0.88;0.88;;;11.60;99.90;;;;;;5130590;27;20666;-72
2023/10/09 10:26:36;;;;;;;0.50;0.50;;;11.30;99.90;;;;;;5111650;27;20256;-71
2023/10/09 10:29:22;;;;;;;2.58;1.67;;;11.20;99.90;;;;;;5096297;28;20196;-71
2023/10/09 10:32:10;;;;;;;0.68;0.68;;;11.20;99.90;;;;;;5110263;28;20195;-72
2023/10/09 10:34:57;;;;;;;0.60;0.60;;;11.20;99.90;;;;;;5110175;28;20223;-71
2023/10/09 10:37:50;;;;;;;0.85;0.85;;;11.30;99.90;;;;;;5110122;28;20187;-71
2023/10/09 10:40:38;;;;;;;0.60;0.60;;;11.50;99.90;;;;;;5110184;28;20227;-71
2023/10/09 10:43:31;;;;;;;0.60;0.60;;;11.40;99.90;;;;;;5110453;28;20187;-70
2023/10/09 10:46:14;;;;;;;0.60;0.60;;;11.10;99.90;;;;;;5110108;28;20239;-70
2023/10/09 10:48:46;;;;;;;0.50;0.50;;;10.90;99.90;;;;;;5109970;28;20215;-72
2023/10/09 10:51:15;;;;;;;0.60;0.60;;;11.00;99.90;;;;;;5119018;27;20638;-71
2023/10/09 10:53:59;;;;;;;0.60;0.60;;;11.00;99.90;;;;;;5111614;27;20236;-72
2023/10/09 10:56:36;;;;;;;0.50;0.50;;;11.20;99.90;;;;;;5130394;27;20187;-70
2023/10/09 11:18:16;;;;;;;0.60;0.60;;;11.10;99.90;;;;;;5066486;28;20199;-71
2023/10/09 11:20:56;;;;;;;0.55;0.55;;;10.90;99.90;;;;;;5065918;28;20217;-72
2023/10/09 11:29:28;;;;;;;0.82;0.82;;;11.20;99.90;;;;;;5066107;28;20650;-70
2023/10/09 11:32:05;;;;;;;0.60;0.60;;;11.50;99.90;;;;;;5049253;28;20200;-72
2023/10/09 11:34:32;;;;;;;0.50;0.50;;;11.90;99.90;;;;;;5066011;28;20258;-71
2023/10/09 11:37:16;;;;;;;0.50;0.50;;;11.80;99.90;;;;;;5049242;28;20203;-72
2023/10/09 11:39:51;;;;;;;0.55;0.55;;;11.60;99.90;;;;;;5070552;28;20204;-72
2023/10/09 11:42:36;;;;;;;0.60;0.60;;;11.40;99.90;;;;;;5113330;28;20187;-72
2023/10/09 11:45:28;;;;;;;1.75;1.08;;;11.50;99.90;;;;;;5113781;28;20199;-72
2023/10/09 11:47:57;;;;;;;0.50;0.50;;;11.40;99.90;;;;;;5094742;28;20191;-72
2023/10/09 11:50:51;;;;;;;0.60;0.60;;;11.30;99.90;;;;;;5095017;28;20211;-72
2023/10/09 11:55:53;;;;;;;0.60;0.60;;;11.50;99.90;;;;;;5113528;28;20207;-72
2023/10/09 11:58:22;;;;;;;0.50;0.50;;;11.60;99.90;;;;;;5094747;28;20206;-72
2023/10/09 12:01:04;;;;;;;0.50;0.50;;;11.80;99.90;;;;;;5094660;28;20207;-72
2023/10/09 12:03:31;;;;;;;0.60;0.60;;;12.00;99.90;;;;;;5112767;28;20554;-72
2023/10/09 12:06:05;;;;;;;0.50;0.50;;;12.20;99.90;;;;;;5112574;28;20703;-72
2023/10/09 12:08:34;;;;;;;0.60;0.60;;;12.20;99.90;;;;;;5112832;28;20244;-72
2023/10/09 12:11:08;;;;;;;0.82;0.65;;;12.20;99.90;;;;;;5094414;28;20203;-71
2023/10/09 12:13:33;;;;;;;0.50;0.50;;;12.30;99.90;;;;;;5112565;28;20302;-70
2023/10/09 12:15:59;;;;;;;0.50;0.50;;;12.50;99.90;;;;;;5112640;28;20669;-72
2023/10/09 12:18:25;;;;;;;0.60;0.60;;;12.70;99.90;;;;;;5112646;28;20196;-72
2023/10/09 12:20:52;;;;;;;0.60;0.60;;;13.00;99.90;;;;;;5122426;27;20213;-72
2023/10/09 12:23:19;;;;;;;0.50;0.50;;;13.00;99.90;;;;;;5133155;27;20684;-70
2023/10/09 12:25:45;;;;;;;0.50;0.50;;;12.60;99.90;;;;;;5133029;27;20227;-73
2023/10/09 12:28:14;;;;;;;0.50;0.50;;;12.20;99.90;;;;;;5132836;27;20899;-72
2023/10/09 12:30:41;;;;;;;0.50;0.50;;;11.90;99.90;;;;;;5132764;27;20182;-72
2023/10/09 12:33:08;;;;;;;1.45;1.02;;;11.70;99.90;;;;;;5133177;27;20270;-71
2023/10/09 12:35:38;;;;;;;0.60;0.60;;;11.70;99.90;;;;;;5132992;27;20203;-71
2023/10/09 12:38:08;;;;;;;0.60;0.60;;;11.70;99.90;;;;;;5133183;27;20225;-72
2023/10/09 12:40:34;;;;;;;0.57;0.57;;;11.60;99.90;;;;;;5132621;27;20243;-72
2023/10/09 12:43:00;;;;;;;0.60;0.60;;;11.60;99.90;;;;;;5132214;27;20195;-72
2023/10/09 12:45:26;;;;;;;0.60;0.60;;;11.70;99.90;;;;;;5132482;27;20217;-72
2023/10/09 12:47:58;;;;;;;0.47;0.47;;;11.60;99.90;;;;;;5114163;27;20198;-72
2023/10/09 12:50:27;;;;;;;0.50;0.50;;;11.60;99.90;;;;;;5132381;27;20195;-72
2023/10/09 12:53:06;;;;;;;0.52;0.52;;;11.50;99.90;;;;;;5132889;27;20271;-73
2023/10/09 12:55:41;;;;;;;0.50;0.50;;;11.60;99.90;;;;;;5132765;27;20202;-72
2023/10/09 12:58:08;;;;;;;0.50;0.50;;;11.50;99.90;;;;;;5132551;27;20223;-72
2023/10/09 13:00:41;;;;;;;0.50;0.50;;;11.40;99.90;;;;;;5132629;27;20281;-72
2023/10/09 13:03:16;;;;;;;0.60;0.60;;;11.40;99.90;;;;;;5108946;27;20206;-72
2023/10/09 13:05:52;;;;;;;0.50;0.50;;;11.70;99.90;;;;;;5132177;27;20217;-72
2023/10/09 13:08:34;;;;;;;0.60;0.60;;;11.70;99.90;;;;;;5132372;27;20186;-72
2023/10/09 13:11:10;;;;;;;0.60;0.60;;;11.50;99.90;;;;;;5113606;27;20195;-72
2023/10/09 13:13:40;;;;;;;0.55;0.55;;;11.50;99.90;;;;;;5113627;27;20198;-72
2023/10/09 13:16:13;;;;;;;0.60;0.60;;;11.20;99.90;;;;;;5131098;27;20187;-72
2023/10/09 13:18:49;;;;;;;0.60;0.60;;;11.30;99.90;;;;;;5093276;28;20282;-71
2023/10/09 13:21:20;;;;;;;0.60;0.60;;;11.20;99.90;;;;;;5111478;28;20688;-73
2023/10/09 13:23:49;;;;;;;0.60;0.60;;;11.20;99.90;;;;;;5111365;28;20188;-73
2023/10/09 13:26:21;;;;;;;0.60;0.60;;;11.30;99.90;;;;;;5093084;28;20195;-73
2023/10/09 13:28:48;;;;;;;4.15;1.20;;;11.20;99.90;;;;;;5125018;27;20191;-73
2023/10/09 13:31:15;;;;;;;0.60;0.60;;;11.10;99.90;;;;;;5132049;27;20611;-73
2023/10/09 13:33:42;;;;;;;1.25;1.15;;;10.90;99.90;;;;;;5131777;27;20187;-73
2023/10/09 13:36:27;;;;;;;0.57;0.57;;;10.80;99.90;;;;;;5132058;27;20187;-73
2023/10/09 13:38:56;;;;;;;0.60;0.60;;;10.60;99.90;;;;;;5112914;27;20281;-72
2023/10/09 13:41:29;;;;;;;0.60;0.60;;;10.40;99.90;;;;;;5131429;27;20223;-73
2023/10/09 13:43:56;;;;;;;0.60;0.60;;;10.30;99.90;;;;;;5131721;27;20600;-74
2023/10/09 13:46:24;;;;;;;0.70;0.70;;;10.00;99.90;;;;;;5112942;27;20689;-74
2023/10/09 13:48:52;;;;;;;0.60;0.60;;;10.00;99.90;;;;;;5131573;27;20554;-75
2023/10/09 13:51:18;;;;;;;1.38;1.27;;;9.80;99.90;;;;;;5132074;27;20191;-75
2023/10/09 13:53:47;;;;;;;0.60;0.60;;;9.70;99.90;;;;;;5131207;27;20301;-76
2023/10/09 13:56:14;;;;;;;0.50;0.50;;;9.70;99.90;;;;;;5131526;27;20691;-75
2023/10/09 13:58:42;;;;;;;0.60;0.60;;;9.70;99.90;;;;;;5118450;27;20224;-75
2023/10/09 14:01:09;;;;;;;0.60;0.60;;;9.70;99.90;;;;;;5110010;28;20280;-75
2023/10/09 14:03:38;;;;;;;0.60;0.60;;;9.70;99.90;;;;;;5110718;28;20191;-76
2023/10/09 14:06:12;;;;;;;0.60;0.60;;;9.70;99.90;;;;;;5110878;28;20207;-76
2023/10/09 14:08:44;;;;;;;0.60;0.60;;;9.70;99.90;;;;;;5110523;28;20611;-76
2023/10/09 14:11:13;;;;;;;0.60;0.60;;;9.60;99.90;;;;;;5092556;28;20811;-77
2023/10/09 14:13:42;;;;;;;0.60;0.60;;;9.60;99.90;;;;;;5123000;27;20717;-76
2023/10/09 14:16:23;;;;;;;0.50;0.50;;;9.60;99.90;;;;;;5131592;27;20191;-76
2023/10/09 14:19:00;;;;;;;0.60;0.60;;;9.60;99.90;;;;;;5131154;27;20186;-76
2023/10/09 14:21:33;;;;;;;0.60;0.60;;;9.70;99.90;;;;;;5130871;27;20713;-76
2023/10/09 14:23:58;;;;;;;0.60;0.60;;;9.70;99.90;;;;;;5131284;27;20280;-75
2023/10/09 14:26:26;;;;;;;0.63;0.63;;;9.70;99.90;;;;;;5130804;27;20199;-76
2023/10/09 14:28:53;;;;;;;0.80;0.80;;;9.50;99.90;;;;;;5130559;27;20206;-76
2023/10/09 14:31:26;;;;;;;0.60;0.60;;;9.40;99.90;;;;;;5130633;27;20732;-73
2023/10/09 14:33:53;;;;;;;0.60;0.60;;;9.30;99.90;;;;;;5112248;27;20317;-72
2023/10/09 14:36:21;;;;;;;0.60;0.60;;;9.10;99.90;;;;;;5111832;27;20592;-73
2023/10/09 14:38:52;;;;;;;0.55;0.55;;;9.00;99.90;;;;;;5112336;27;20187;-73
2023/10/09 14:41:25;;;;;;;0.70;0.70;;;8.80;99.90;;;;;;5130547;27;20190;-73
2023/10/09 14:43:52;;;;;;;0.60;0.60;;;8.70;99.90;;;;;;5111963;27;20191;-73
2023/10/09 14:46:23;;;;;;;1.25;1.15;;;8.50;99.90;;;;;;5130744;27;20183;-73
2023/10/09 14:48:49;;;;;;;0.60;0.60;;;8.40;99.90;;;;;;5130728;27;20666;-73
2023/10/09 14:51:15;;;;;;;0.70;0.70;;;8.30;99.90;;;;;;5130627;27;20201;-73
2023/10/09 14:53:40;;;;;;;0.60;0.60;;;8.10;99.90;;;;;;5127769;27;20608;-73
2023/10/09 14:56:14;;;;;;;0.63;0.63;;;7.90;99.90;;;;;;5109641;28;20247;-73
2023/10/09 14:58:40;;;;;;;0.70;0.70;;;7.80;99.90;;;;;;5091090;28;20223;-73
2023/10/09 15:01:10;;;;;;;0.60;0.60;;;7.60;99.90;;;;;;5109563;28;20227;-72
2023/10/09 15:03:39;;;;;;;0.70;0.70;;;7.40;99.90;;;;;;5109393;28;20202;-73
2023/10/09 15:06:11;;;;;;;0.70;0.70;;;7.20;99.90;;;;;;5109327;28;20279;-72
2023/10/09 15:08:37;;;;;;;0.80;0.80;;;7.10;99.90;;;;;;5110742;28;20188;-72
2023/10/09 15:11:03;;;;;;;0.70;0.70;;;7.00;99.90;;;;;;5130217;27;20187;-71
2023/10/09 15:13:30;;;;;;;0.57;0.57;;;6.90;99.90;;;;;;5130010;27;20195;-71
2023/10/09 15:15:56;;;;;;;0.70;0.70;;;6.80;99.90;;;;;;5130004;27;20190;-72
2023/10/09 15:18:22;;;;;;;0.60;0.60;;;6.60;99.90;;;;;;5129751;27;20539;-72
2023/10/09 15:20:49;;;;;;;0.60;0.60;;;6.40;99.90;;;;;;5129733;27;20615;-73
2023/10/09 15:23:14;;;;;;;0.65;0.65;;;6.30;99.90;;;;;;5111317;27;20194;-72
2023/10/09 15:25:44;;;;;;;0.60;0.60;;;6.20;99.90;;;;;;5110680;27;20299;-72
2023/10/09 15:28:10;;;;;;;3.15;1.70;;;6.00;99.90;;;;;;5129523;27;20191;-71
2023/10/09 15:30:39;;;;;;;0.75;0.75;;;5.90;99.90;;;;;;5129845;28;20205;-72
2023/10/09 15:33:05;;;;;;;0.70;0.70;;;5.70;99.90;;;;;;5115235;28;20192;-71
2023/10/09 15:35:34;;;;;;;0.70;0.70;;;5.50;99.90;;;;;;5108888;28;20279;-73
2023/10/09 15:38:03;;;;;;;0.70;0.70;;;5.40;99.90;;;;;;5109212;28;20231;-71
2023/10/09 15:40:33;;;;;;;0.70;0.70;;;5.30;99.90;;;;;;5109284;28;20196;-73
2023/10/09 15:42:59;;;;;;;0.70;0.70;;;5.20;99.90;;;;;;5109420;28;20538;-73
2023/10/09 15:45:28;;;;;;;0.70;0.70;;;5.00;99.90;;;;;;5090597;28;20692;-73
2023/10/09 15:47:54;;;;;;;0.65;0.65;;;4.90;99.90;;;;;;5090737;28;20223;-73
2023/10/09 15:50:24;;;;;;;0.70;0.70;;;4.90;99.90;;;;;;5108670;28;20206;-73
2023/10/09 15:52:53;;;;;;;0.63;0.63;;;4.90;99.90;;;;;;5109001;28;20555;-73
2023/10/09 15:55:24;;;;;;;3.80;1.70;;;4.80;99.90;;;;;;5109418;28;20622;-73
2023/10/09 15:57:58;;;;;;;0.63;0.63;;;4.70;99.90;;;;;;5109190;28;20199;-73
2023/10/09 16:00:31;;;;;;;0.70;0.70;;;4.70;99.90;;;;;;5108761;28;20183;-73
2023/10/09 16:02:57;;;;;;;0.80;0.80;;;4.70;99.90;;;;;;5109336;28;20204;-73
2023/10/09 16:05:25;;;;;;;0.77;0.77;;;4.60;99.90;;;;;;5090209;28;20215;-73
2023/10/09 16:07:55;;;;;;;0.70;0.70;;;4.50;99.90;;;;;;5108908;28;20639;-73
2023/10/09 16:10:22;;;;;;;0.70;0.70;;;4.50;99.90;;;;;;5090262;28;20219;-71
2023/10/09 16:12:48;;;;;;;0.70;0.70;;;4.40;99.90;;;;;;5108903;28;20202;-71
2023/10/09 16:15:17;;;;;;;0.70;0.70;;;4.40;99.90;;;;;;5108768;28;20194;-71
2023/10/09 16:17:47;;;;;;;0.70;0.70;;;4.40;99.90;;;;;;5108589;28;20245;-71
2023/10/09 16:20:20;;;;;;;0.70;0.70;;;4.40;99.90;;;;;;5090687;28;20199;-72
2023/10/09 16:22:49;;;;;;;0.70;0.70;;;4.40;99.90;;;;;;5109023;28;20196;-72
2023/10/09 16:25:17;;;;;;;0.70;0.70;;;4.30;99.90;;;;;;5126452;27;20323;-71
2023/10/09 16:27:47;;;;;;;0.70;0.70;;;4.30;99.90;;;;;;5132523;27;20530;-71
2023/10/09 16:30:23;;;;;;;0.70;0.70;;;4.20;99.90;;;;;;5133011;27;20191;-70
2023/10/09 16:32:50;;;;;;;0.77;0.77;;;4.10;99.90;;;;;;5133182;27;20194;-72
2023/10/09 16:35:16;;;;;;;1.17;1.13;;;4.00;99.90;;;;;;5133148;27;20187;-70
2023/10/09 16:37:42;;;;;;;0.60;0.60;;;3.90;99.90;;;;;;5132600;27;20191;-72
2023/10/09 16:40:13;;;;;;;0.70;0.70;;;3.80;99.90;;;;;;5133131;27;20195;-72
2023/10/09 16:42:44;;;;;;;0.60;0.60;;;3.80;99.90;;;;;;5132637;27;20669;-71
2023/10/09 16:45:15;;;;;;;0.75;0.75;;;3.70;99.90;;;;;;5133021;27;20636;-71
2023/10/09 16:47:58;;;;;;;0.70;0.70;;;3.60;99.90;;;;;;5122432;27;20207;-73